Superior, Montana
Current Conditions -  °F | °C
As of 8:09 AM on Monday 24 Nov 2014 (Local Time) from KMLP Reporting Station
Haze Haze  
Wind Chill: 17°   Ceiling: 100
Heat Index: 23°   Visibility: 0.75mi
Dew Point: 20°   Wind: 5mph
Humidity: 88%   Direction: NA
Pressure: 30.18"   Gusts: NA
Location:  47.19°N, 114.89°W
Report Text: KMLP 241509Z AUTO VRB04KT 3/4SM BR VV001 M05/M07 A3018 RMK AO2 T10501067
Loading
Personal Weather Stations






























Interactive Weather Map New forecast layout! Learn more

10-Day Weather Forecast

Advertisements
Track Severe Weather on mobile